sensor_id;sensor_type;location;lat;lon;timestamp;P1;durP1;ratioP1;P2;durP2;ratioP2
14268;SDS011;7218;51.480;7.006;2023-05-10T00:00:59;6.90;;;6.20;;
14268;SDS011;7218;51.480;7.006;2023-05-10T00:03:25;10.65;;;7.40;;
14268;SDS011;7218;51.480;7.006;2023-05-10T00:05:52;8.45;;;7.50;;
14268;SDS011;7218;51.480;7.006;2023-05-10T00:08:18;9.90;;;7.72;;
14268;SDS011;7218;51.480;7.006;2023-05-10T00:10:46;9.45;;;8.07;;
14268;SDS011;7218;51.480;7.006;2023-05-10T00:13:13;9.40;;;8.32;;
14268;SDS011;7218;51.480;7.006;2023-05-10T00:15:39;9.82;;;8.63;;
14268;SDS011;7218;51.480;7.006;2023-05-10T00:18:06;10.05;;;8.95;;
14268;SDS011;7218;51.480;7.006;2023-05-10T00:20:32;10.18;;;9.07;;
14268;SDS011;7218;51.480;7.006;2023-05-10T00:22:59;11.75;;;9.25;;
14268;SDS011;7218;51.480;7.006;2023-05-10T00:25:25;11.18;;;9.82;;
14268;SDS011;7218;51.480;7.006;2023-05-10T00:27:53;11.10;;;9.60;;
14268;SDS011;7218;51.480;7.006;2023-05-10T00:30:20;12.88;;;10.07;;
14268;SDS011;7218;51.480;7.006;2023-05-10T00:32:46;12.23;;;10.45;;
14268;SDS011;7218;51.480;7.006;2023-05-10T00:35:14;12.55;;;10.63;;
14268;SDS011;7218;51.480;7.006;2023-05-10T00:37:41;13.70;;;11.13;;
14268;SDS011;7218;51.480;7.006;2023-05-10T00:40:07;13.07;;;11.38;;
14268;SDS011;7218;51.480;7.006;2023-05-10T00:42:34;12.73;;;11.43;;
14268;SDS011;7218;51.480;7.006;2023-05-10T00:45:02;12.32;;;11.02;;
14268;SDS011;7218;51.480;7.006;2023-05-10T00:47:29;11.43;;;10.23;;
14268;SDS011;7218;51.480;7.006;2023-05-10T00:49:56;12.50;;;9.27;;
14268;SDS011;7218;51.480;7.006;2023-05-10T00:52:23;10.45;;;8.73;;
14268;SDS011;7218;51.480;7.006;2023-05-10T00:54:49;9.98;;;8.75;;
14268;SDS011;7218;51.480;7.006;2023-05-10T00:57:17;9.75;;;8.55;;
14268;SDS011;7218;51.480;7.006;2023-05-10T00:59:44;11.43;;;9.20;;
14268;SDS011;7218;51.480;7.006;2023-05-10T01:02:12;10.57;;;8.57;;
14268;SDS011;7218;51.480;7.006;2023-05-10T01:04:39;11.15;;;9.00;;
14268;SDS011;7218;51.480;7.006;2023-05-10T01:07:06;11.02;;;9.10;;
14268;SDS011;7218;51.480;7.006;2023-05-10T01:09:32;11.60;;;9.23;;
14268;SDS011;7218;51.480;7.006;2023-05-10T01:12:00;11.70;;;9.43;;
14268;SDS011;7218;51.480;7.006;2023-05-10T01:14:27;12.82;;;9.30;;
14268;SDS011;7218;51.480;7.006;2023-05-10T01:16:54;10.15;;;8.93;;
14268;SDS011;7218;51.480;7.006;2023-05-10T01:19:23;11.32;;;9.18;;
14268;SDS011;7218;51.480;7.006;2023-05-10T01:21:53;10.45;;;7.85;;
14268;SDS011;7218;51.480;7.006;2023-05-10T01:24:34;11.35;;;8.80;;
14268;SDS011;7218;51.480;7.006;2023-05-10T01:27:17;12.10;;;8.95;;
14268;SDS011;7218;51.480;7.006;2023-05-10T01:29:57;13.57;;;9.68;;
14268;SDS011;7218;51.480;7.006;2023-05-10T01:32:36;12.50;;;9.45;;
14268;SDS011;7218;51.480;7.006;2023-05-10T01:35:09;12.85;;;9.57;;
14268;SDS011;7218;51.480;7.006;2023-05-10T01:37:42;11.88;;;9.60;;
14268;SDS011;7218;51.480;7.006;2023-05-10T01:40:17;12.13;;;10.00;;
14268;SDS011;7218;51.480;7.006;2023-05-10T01:42:50;16.05;;;11.10;;
14268;SDS011;7218;51.480;7.006;2023-05-10T01:45:20;16.15;;;11.65;;
14268;SDS011;7218;51.480;7.006;2023-05-10T01:47:56;15.75;;;11.23;;
14268;SDS011;7218;51.480;7.006;2023-05-10T01:50:29;16.92;;;10.82;;
14268;SDS011;7218;51.480;7.006;2023-05-10T01:52:57;16.02;;;11.30;;
14268;SDS011;7218;51.480;7.006;2023-05-10T01:55:27;15.30;;;11.00;;
14268;SDS011;7218;51.480;7.006;2023-05-10T01:57:58;14.30;;;10.90;;
14268;SDS011;7218;51.480;7.006;2023-05-10T02:00:28;13.80;;;10.25;;
14268;SDS011;7218;51.480;7.006;2023-05-10T02:02:57;14.13;;;10.23;;
14268;SDS011;7218;51.480;7.006;2023-05-10T02:05:26;14.88;;;11.20;;
14268;SDS011;7218;51.480;7.006;2023-05-10T02:07:55;14.27;;;10.82;;
14268;SDS011;7218;51.480;7.006;2023-05-10T02:10:23;15.73;;;10.45;;
14268;SDS011;7218;51.480;7.006;2023-05-10T02:12:50;15.65;;;10.57;;
14268;SDS011;7218;51.480;7.006;2023-05-10T02:15:21;15.07;;;10.25;;
14268;SDS011;7218;51.480;7.006;2023-05-10T02:17:49;15.23;;;10.82;;
14268;SDS011;7218;51.480;7.006;2023-05-10T02:20:18;13.50;;;10.50;;
14268;SDS011;7218;51.480;7.006;2023-05-10T02:22:47;14.10;;;10.63;;
14268;SDS011;7218;51.480;7.006;2023-05-10T02:25:16;13.77;;;10.60;;
14268;SDS011;7218;51.480;7.006;2023-05-10T02:27:45;15.65;;;10.77;;
14268;SDS011;7218;51.480;7.006;2023-05-10T02:30:14;14.30;;;10.82;;
14268;SDS011;7218;51.480;7.006;2023-05-10T02:32:41;15.35;;;10.75;;
14268;SDS011;7218;51.480;7.006;2023-05-10T02:35:09;17.05;;;11.68;;
14268;SDS011;7218;51.480;7.006;2023-05-10T02:37:38;15.20;;;11.05;;
14268;SDS011;7218;51.480;7.006;2023-05-10T02:40:06;15.35;;;10.27;;
14268;SDS011;7218;51.480;7.006;2023-05-10T02:42:35;16.23;;;11.35;;
14268;SDS011;7218;51.480;7.006;2023-05-10T02:45:05;16.23;;;11.05;;
14268;SDS011;7218;51.480;7.006;2023-05-10T02:47:34;13.10;;;9.25;;
14268;SDS011;7218;51.480;7.006;2023-05-10T02:50:01;13.57;;;9.40;;
14268;SDS011;7218;51.480;7.006;2023-05-10T02:52:29;13.13;;;9.00;;
14268;SDS011;7218;51.480;7.006;2023-05-10T02:55:02;13.43;;;9.27;;
14268;SDS011;7218;51.480;7.006;2023-05-10T02:57:32;14.13;;;9.27;;
14268;SDS011;7218;51.480;7.006;2023-05-10T03:00:00;13.43;;;9.32;;
14268;SDS011;7218;51.480;7.006;2023-05-10T03:02:27;12.82;;;9.48;;
14268;SDS011;7218;51.480;7.006;2023-05-10T03:04:55;15.43;;;9.60;;
14268;SDS011;7218;51.480;7.006;2023-05-10T03:07:22;12.32;;;9.15;;
14268;SDS011;7218;51.480;7.006;2023-05-10T03:09:49;13.52;;;9.65;;
14268;SDS011;7218;51.480;7.006;2023-05-10T03:12:18;14.50;;;9.40;;
14268;SDS011;7218;51.480;7.006;2023-05-10T03:14:53;15.63;;;10.20;;
14268;SDS011;7218;51.480;7.006;2023-05-10T03:17:35;17.55;;;11.48;;
14268;SDS011;7218;51.480;7.006;2023-05-10T03:20:12;18.65;;;13.05;;
14268;SDS011;7218;51.480;7.006;2023-05-10T03:22:45;21.25;;;13.88;;
14268;SDS011;7218;51.480;7.006;2023-05-10T03:25:15;23.05;;;14.65;;
14268;SDS011;7218;51.480;7.006;2023-05-10T03:27:44;20.30;;;15.02;;
14268;SDS011;7218;51.480;7.006;2023-05-10T03:30:12;22.00;;;15.20;;
14268;SDS011;7218;51.480;7.006;2023-05-10T03:32:39;22.23;;;15.68;;
14268;SDS011;7218;51.480;7.006;2023-05-10T03:35:06;24.00;;;16.23;;
14268;SDS011;7218;51.480;7.006;2023-05-10T03:37:33;24.10;;;16.27;;
14268;SDS011;7218;51.480;7.006;2023-05-10T03:40:00;23.20;;;16.27;;
14268;SDS011;7218;51.480;7.006;2023-05-10T03:42:27;26.63;;;16.83;;
14268;SDS011;7218;51.480;7.006;2023-05-10T03:44:54;30.88;;;15.95;;
14268;SDS011;7218;51.480;7.006;2023-05-10T03:47:21;22.27;;;15.30;;
14268;SDS011;7218;51.480;7.006;2023-05-10T03:49:47;21.73;;;15.57;;
14268;SDS011;7218;51.480;7.006;2023-05-10T03:52:14;23.83;;;15.48;;
14268;SDS011;7218;51.480;7.006;2023-05-10T03:54:40;23.08;;;15.70;;
14268;SDS011;7218;51.480;7.006;2023-05-10T03:57:07;23.40;;;15.70;;
14268;SDS011;7218;51.480;7.006;2023-05-10T03:59:34;22.10;;;15.93;;
14268;SDS011;7218;51.480;7.006;2023-05-10T04:02:02;23.48;;;15.63;;
14268;SDS011;7218;51.480;7.006;2023-05-10T04:04:28;25.55;;;16.88;;
14268;SDS011;7218;51.480;7.006;2023-05-10T04:06:55;24.98;;;18.20;;
14268;SDS011;7218;51.480;7.006;2023-05-10T04:09:21;28.63;;;18.92;;
14268;SDS011;7218;51.480;7.006;2023-05-10T04:11:48;27.23;;;19.67;;
14268;SDS011;7218;51.480;7.006;2023-05-10T04:14:14;33.97;;;21.23;;
14268;SDS011;7218;51.480;7.006;2023-05-10T04:16:41;32.70;;;20.88;;
14268;SDS011;7218;51.480;7.006;2023-05-10T04:19:09;32.33;;;20.38;;
14268;SDS011;7218;51.480;7.006;2023-05-10T04:21:36;35.55;;;22.15;;
14268;SDS011;7218;51.480;7.006;2023-05-10T04:24:02;31.35;;;20.30;;
14268;SDS011;7218;51.480;7.006;2023-05-10T04:26:29;38.22;;;21.75;;
14268;SDS011;7218;51.480;7.006;2023-05-10T04:28:56;34.88;;;21.27;;
14268;SDS011;7218;51.480;7.006;2023-05-10T04:31:22;34.20;;;20.75;;
14268;SDS011;7218;51.480;7.006;2023-05-10T04:33:49;35.33;;;20.92;;
14268;SDS011;7218;51.480;7.006;2023-05-10T04:36:17;37.00;;;21.60;;
14268;SDS011;7218;51.480;7.006;2023-05-10T04:38:43;36.83;;;22.35;;
14268;SDS011;7218;51.480;7.006;2023-05-10T04:41:10;36.25;;;21.70;;
14268;SDS011;7218;51.480;7.006;2023-05-10T04:43:37;36.17;;;21.60;;
14268;SDS011;7218;51.480;7.006;2023-05-10T04:46:04;38.78;;;23.15;;
14268;SDS011;7218;51.480;7.006;2023-05-10T04:48:30;41.92;;;23.95;;
14268;SDS011;7218;51.480;7.006;2023-05-10T04:50:57;40.50;;;24.25;;
14268;SDS011;7218;51.480;7.006;2023-05-10T04:53:25;38.20;;;23.23;;
14268;SDS011;7218;51.480;7.006;2023-05-10T04:55:51;37.70;;;23.13;;
14268;SDS011;7218;51.480;7.006;2023-05-10T04:58:18;38.38;;;23.35;;
14268;SDS011;7218;51.480;7.006;2023-05-10T05:00:44;35.70;;;23.52;;
14268;SDS011;7218;51.480;7.006;2023-05-10T05:03:11;36.92;;;24.17;;
14268;SDS011;7218;51.480;7.006;2023-05-10T05:05:37;39.30;;;24.08;;
14268;SDS011;7218;51.480;7.006;2023-05-10T05:08:04;41.20;;;25.30;;
14268;SDS011;7218;51.480;7.006;2023-05-10T05:10:32;40.65;;;25.00;;
14268;SDS011;7218;51.480;7.006;2023-05-10T05:12:58;40.33;;;25.17;;
14268;SDS011;7218;51.480;7.006;2023-05-10T05:15:25;39.15;;;25.02;;
14268;SDS011;7218;51.480;7.006;2023-05-10T05:17:51;36.58;;;24.38;;
14268;SDS011;7218;51.480;7.006;2023-05-10T05:20:18;38.53;;;23.95;;
14268;SDS011;7218;51.480;7.006;2023-05-10T05:22:44;39.63;;;25.13;;
14268;SDS011;7218;51.480;7.006;2023-05-10T05:25:11;39.30;;;25.88;;
14268;SDS011;7218;51.480;7.006;2023-05-10T05:27:39;39.60;;;25.90;;
14268;SDS011;7218;51.480;7.006;2023-05-10T05:30:06;41.55;;;27.35;;
14268;SDS011;7218;51.480;7.006;2023-05-10T05:32:33;38.15;;;25.25;;
14268;SDS011;7218;51.480;7.006;2023-05-10T05:35:00;42.03;;;27.10;;
14268;SDS011;7218;51.480;7.006;2023-05-10T05:37:26;40.58;;;26.00;;
14268;SDS011;7218;51.480;7.006;2023-05-10T05:39:53;38.97;;;26.40;;
14268;SDS011;7218;51.480;7.006;2023-05-10T05:42:19;42.67;;;25.92;;
14268;SDS011;7218;51.480;7.006;2023-05-10T05:44:47;43.63;;;26.95;;
14268;SDS011;7218;51.480;7.006;2023-05-10T05:47:14;39.78;;;26.23;;
14268;SDS011;7218;51.480;7.006;2023-05-10T05:49:41;44.67;;;27.05;;
14268;SDS011;7218;51.480;7.006;2023-05-10T05:52:07;40.17;;;27.08;;
14268;SDS011;7218;51.480;7.006;2023-05-10T05:54:33;39.30;;;26.35;;
14268;SDS011;7218;51.480;7.006;2023-05-10T05:57:00;40.47;;;26.58;;
14268;SDS011;7218;51.480;7.006;2023-05-10T05:59:27;39.97;;;26.40;;
14268;SDS011;7218;51.480;7.006;2023-05-10T06:01:55;38.00;;;25.52;;
14268;SDS011;7218;51.480;7.006;2023-05-10T06:04:21;39.38;;;26.15;;
14268;SDS011;7218;51.480;7.006;2023-05-10T06:06:48;38.03;;;25.25;;
14268;SDS011;7218;51.480;7.006;2023-05-10T06:09:14;39.30;;;25.60;;
14268;SDS011;7218;51.480;7.006;2023-05-10T06:11:41;35.90;;;24.88;;
14268;SDS011;7218;51.480;7.006;2023-05-10T06:14:07;36.60;;;24.90;;
14268;SDS011;7218;51.480;7.006;2023-05-10T06:16:34;36.65;;;24.77;;
14268;SDS011;7218;51.480;7.006;2023-05-10T06:19:02;33.95;;;23.80;;
14268;SDS011;7218;51.480;7.006;2023-05-10T06:21:29;33.38;;;23.10;;
14268;SDS011;7218;51.480;7.006;2023-05-10T06:23:56;31.08;;;22.67;;
14268;SDS011;7218;51.480;7.006;2023-05-10T06:26:22;34.67;;;22.80;;
14268;SDS011;7218;51.480;7.006;2023-05-10T06:28:49;34.97;;;22.70;;
14268;SDS011;7218;51.480;7.006;2023-05-10T06:31:15;38.30;;;23.75;;
14268;SDS011;7218;51.480;7.006;2023-05-10T06:33:42;36.70;;;24.45;;
14268;SDS011;7218;51.480;7.006;2023-05-10T06:36:10;40.78;;;24.45;;
14268;SDS011;7218;51.480;7.006;2023-05-10T06:38:36;41.83;;;24.95;;
14268;SDS011;7218;51.480;7.006;2023-05-10T06:41:03;42.00;;;25.80;;
14268;SDS011;7218;51.480;7.006;2023-05-10T06:43:30;44.85;;;26.77;;
14268;SDS011;7218;51.480;7.006;2023-05-10T06:45:57;47.53;;;25.90;;
14268;SDS011;7218;51.480;7.006;2023-05-10T06:48:23;41.67;;;25.55;;
14268;SDS011;7218;51.480;7.006;2023-05-10T06:50:50;44.25;;;25.00;;
14268;SDS011;7218;51.480;7.006;2023-05-10T06:53:18;40.72;;;24.88;;
14268;SDS011;7218;51.480;7.006;2023-05-10T06:55:44;39.42;;;23.48;;
14268;SDS011;7218;51.480;7.006;2023-05-10T06:58:11;39.38;;;25.48;;
14268;SDS011;7218;51.480;7.006;2023-05-10T07:00:38;40.30;;;25.38;;
14268;SDS011;7218;51.480;7.006;2023-05-10T07:03:05;40.38;;;24.77;;
14268;SDS011;7218;51.480;7.006;2023-05-10T07:05:32;40.15;;;25.05;;
14268;SDS011;7218;51.480;7.006;2023-05-10T07:07:58;40.20;;;25.48;;
14268;SDS011;7218;51.480;7.006;2023-05-10T07:10:26;42.05;;;25.33;;
14268;SDS011;7218;51.480;7.006;2023-05-10T07:12:53;38.20;;;24.55;;
14268;SDS011;7218;51.480;7.006;2023-05-10T07:15:19;38.83;;;24.63;;
14268;SDS011;7218;51.480;7.006;2023-05-10T07:17:46;39.33;;;23.63;;
14268;SDS011;7218;51.480;7.006;2023-05-10T07:20:12;42.95;;;23.98;;
14268;SDS011;7218;51.480;7.006;2023-05-10T07:22:39;38.15;;;23.63;;
14268;SDS011;7218;51.480;7.006;2023-05-10T07:25:06;36.55;;;23.80;;
14268;SDS011;7218;51.480;7.006;2023-05-10T07:27:34;38.83;;;22.48;;
14268;SDS011;7218;51.480;7.006;2023-05-10T07:30:01;36.53;;;23.15;;
14268;SDS011;7218;51.480;7.006;2023-05-10T07:32:27;38.08;;;23.25;;
14268;SDS011;7218;51.480;7.006;2023-05-10T07:34:54;34.75;;;22.05;;
14268;SDS011;7218;51.480;7.006;2023-05-10T07:37:20;40.33;;;23.48;;
14268;SDS011;7218;51.480;7.006;2023-05-10T07:39:47;38.03;;;23.48;;
14268;SDS011;7218;51.480;7.006;2023-05-10T07:42:13;35.42;;;22.73;;
14268;SDS011;7218;51.480;7.006;2023-05-10T07:44:41;38.72;;;23.02;;
14268;SDS011;7218;51.480;7.006;2023-05-10T07:47:08;41.53;;;23.13;;
14268;SDS011;7218;51.480;7.006;2023-05-10T07:49:34;40.92;;;22.88;;
14268;SDS011;7218;51.480;7.006;2023-05-10T07:52:02;35.90;;;22.90;;
14268;SDS011;7218;51.480;7.006;2023-05-10T07:54:29;37.22;;;23.08;;
14268;SDS011;7218;51.480;7.006;2023-05-10T07:56:55;38.35;;;22.75;;
14268;SDS011;7218;51.480;7.006;2023-05-10T07:59:22;42.60;;;23.15;;
14268;SDS011;7218;51.480;7.006;2023-05-10T08:01:49;37.80;;;23.42;;
14268;SDS011;7218;51.480;7.006;2023-05-10T08:04:16;35.65;;;23.02;;
14268;SDS011;7218;51.480;7.006;2023-05-10T08:06:42;36.88;;;21.38;;
14268;SDS011;7218;51.480;7.006;2023-05-10T08:09:09;33.88;;;21.13;;
14268;SDS011;7218;51.480;7.006;2023-05-10T08:11:35;31.45;;;19.52;;
14268;SDS011;7218;51.480;7.006;2023-05-10T08:14:02;29.48;;;17.92;;
14268;SDS011;7218;51.480;7.006;2023-05-10T08:16:28;30.90;;;19.17;;
14268;SDS011;7218;51.480;7.006;2023-05-10T08:18:56;30.58;;;18.58;;
14268;SDS011;7218;51.480;7.006;2023-05-10T08:21:23;31.05;;;18.90;;
14268;SDS011;7218;51.480;7.006;2023-05-10T08:23:49;28.42;;;17.77;;
14268;SDS011;7218;51.480;7.006;2023-05-10T08:26:16;28.33;;;17.55;;
14268;SDS011;7218;51.480;7.006;2023-05-10T08:28:42;27.85;;;16.73;;
14268;SDS011;7218;51.480;7.006;2023-05-10T08:31:09;27.40;;;16.73;;
14268;SDS011;7218;51.480;7.006;2023-05-10T08:33:35;26.65;;;17.02;;
14268;SDS011;7218;51.480;7.006;2023-05-10T08:36:03;23.70;;;15.32;;
14268;SDS011;7218;51.480;7.006;2023-05-10T08:38:30;26.85;;;16.58;;
14268;SDS011;7218;51.480;7.006;2023-05-10T08:40:56;29.17;;;16.55;;
14268;SDS011;7218;51.480;7.006;2023-05-10T08:43:25;24.10;;;16.30;;
14268;SDS011;7218;51.480;7.006;2023-05-10T08:45:54;30.75;;;18.13;;
14268;SDS011;7218;51.480;7.006;2023-05-10T08:48:21;28.00;;;19.35;;
14268;SDS011;7218;51.480;7.006;2023-05-10T08:50:49;29.88;;;20.13;;
14268;SDS011;7218;51.480;7.006;2023-05-10T08:53:20;29.63;;;19.13;;
14268;SDS011;7218;51.480;7.006;2023-05-10T08:55:50;29.90;;;19.73;;
14268;SDS011;7218;51.480;7.006;2023-05-10T08:58:16;30.88;;;20.77;;
14268;SDS011;7218;51.480;7.006;2023-05-10T09:00:44;30.83;;;20.85;;
14268;SDS011;7218;51.480;7.006;2023-05-10T09:03:11;32.65;;;22.02;;
14268;SDS011;7218;51.480;7.006;2023-05-10T09:05:38;35.05;;;22.15;;
14268;SDS011;7218;51.480;7.006;2023-05-10T09:08:06;31.40;;;20.73;;
14268;SDS011;7218;51.480;7.006;2023-05-10T09:10:36;31.63;;;21.42;;
14268;SDS011;7218;51.480;7.006;2023-05-10T09:13:04;34.53;;;21.55;;
14268;SDS011;7218;51.480;7.006;2023-05-10T09:15:31;30.38;;;20.65;;
14268;SDS011;7218;51.480;7.006;2023-05-10T09:17:58;28.17;;;19.27;;
14268;SDS011;7218;51.480;7.006;2023-05-10T09:20:27;28.17;;;17.98;;
14268;SDS011;7218;51.480;7.006;2023-05-10T09:22:53;27.30;;;17.33;;
14268;SDS011;7218;51.480;7.006;2023-05-10T09:25:20;29.85;;;18.33;;
14268;SDS011;7218;51.480;7.006;2023-05-10T09:27:48;27.45;;;18.13;;
14268;SDS011;7218;51.480;7.006;2023-05-10T09:30:16;29.23;;;18.88;;
14268;SDS011;7218;51.480;7.006;2023-05-10T09:32:44;31.83;;;18.40;;
14268;SDS011;7218;51.480;7.006;2023-05-10T09:35:12;29.38;;;18.88;;
14268;SDS011;7218;51.480;7.006;2023-05-10T09:37:40;31.20;;;19.05;;
14268;SDS011;7218;51.480;7.006;2023-05-10T09:40:08;36.90;;;22.17;;
14268;SDS011;7218;51.480;7.006;2023-05-10T09:42:38;34.75;;;21.77;;
14268;SDS011;7218;51.480;7.006;2023-05-10T09:45:07;33.58;;;20.67;;
14268;SDS011;7218;51.480;7.006;2023-05-10T09:47:34;33.75;;;19.95;;
14268;SDS011;7218;51.480;7.006;2023-05-10T09:50:01;30.75;;;19.17;;
14268;SDS011;7218;51.480;7.006;2023-05-10T09:52:29;32.90;;;19.42;;
14268;SDS011;7218;51.480;7.006;2023-05-10T09:54:56;32.25;;;19.80;;
14268;SDS011;7218;51.480;7.006;2023-05-10T09:57:23;32.28;;;18.73;;
14268;SDS011;7218;51.480;7.006;2023-05-10T09:59:52;26.58;;;17.67;;
14268;SDS011;7218;51.480;7.006;2023-05-10T10:02:20;27.55;;;16.77;;
14268;SDS011;7218;51.480;7.006;2023-05-10T10:04:54;28.40;;;17.20;;
14268;SDS011;7218;51.480;7.006;2023-05-10T10:07:22;25.60;;;16.92;;
14268;SDS011;7218;51.480;7.006;2023-05-10T10:09:50;25.42;;;16.38;;
14268;SDS011;7218;51.480;7.006;2023-05-10T10:12:17;19.83;;;14.18;;
14268;SDS011;7218;51.480;7.006;2023-05-10T10:14:44;22.38;;;14.73;;
14268;SDS011;7218;51.480;7.006;2023-05-10T10:17:12;22.63;;;15.20;;
14268;SDS011;7218;51.480;7.006;2023-05-10T10:19:40;22.30;;;14.55;;
14268;SDS011;7218;51.480;7.006;2023-05-10T10:22:07;18.67;;;14.82;;
14268;SDS011;7218;51.480;7.006;2023-05-10T10:24:35;18.85;;;14.30;;
14268;SDS011;7218;51.480;7.006;2023-05-10T10:27:04;21.88;;;13.38;;
14268;SDS011;7218;51.480;7.006;2023-05-10T10:29:39;18.17;;;12.82;;
14268;SDS011;7218;51.480;7.006;2023-05-10T10:32:18;17.67;;;12.95;;
14268;SDS011;7218;51.480;7.006;2023-05-10T10:34:51;20.45;;;13.60;;
14268;SDS011;7218;51.480;7.006;2023-05-10T10:37:18;24.67;;;16.90;;
14268;SDS011;7218;51.480;7.006;2023-05-10T10:39:45;23.83;;;14.32;;
14268;SDS011;7218;51.480;7.006;2023-05-10T10:42:14;19.85;;;14.02;;
14268;SDS011;7218;51.480;7.006;2023-05-10T10:45:11;23.15;;;15.75;;
14268;SDS011;7218;51.480;7.006;2023-05-10T10:47:38;22.95;;;16.90;;
14268;SDS011;7218;51.480;7.006;2023-05-10T10:50:06;24.90;;;15.88;;
14268;SDS011;7218;51.480;7.006;2023-05-10T10:52:35;18.38;;;13.68;;
14268;SDS011;7218;51.480;7.006;2023-05-10T10:55:03;22.25;;;14.65;;
14268;SDS011;7218;51.480;7.006;2023-05-10T10:57:31;21.45;;;13.32;;
14268;SDS011;7218;51.480;7.006;2023-05-10T11:00:19;21.55;;;14.40;;
14268;SDS011;7218;51.480;7.006;2023-05-10T11:02:56;19.58;;;12.98;;
14268;SDS011;7218;51.480;7.006;2023-05-10T11:08:09;18.65;;;13.07;;
14268;SDS011;7218;51.480;7.006;2023-05-10T11:10:40;24.40;;;12.55;;
14268;SDS011;7218;51.480;7.006;2023-05-10T11:13:16;17.25;;;12.57;;
14268;SDS011;7218;51.480;7.006;2023-05-10T11:15:53;18.58;;;12.38;;
14268;SDS011;7218;51.480;7.006;2023-05-10T11:18:23;16.02;;;12.07;;
14268;SDS011;7218;51.480;7.006;2023-05-10T11:20:52;17.65;;;12.00;;
14268;SDS011;7218;51.480;7.006;2023-05-10T11:23:23;16.67;;;11.48;;
14268;SDS011;7218;51.480;7.006;2023-05-10T11:25:50;15.38;;;11.63;;
14268;SDS011;7218;51.480;7.006;2023-05-10T11:28:17;16.48;;;10.85;;
14268;SDS011;7218;51.480;7.006;2023-05-10T11:30:44;21.02;;;12.45;;
14268;SDS011;7218;51.480;7.006;2023-05-10T11:33:14;18.75;;;12.93;;
14268;SDS011;7218;51.480;7.006;2023-05-10T11:35:42;18.92;;;13.77;;
14268;SDS011;7218;51.480;7.006;2023-05-10T11:38:11;17.23;;;11.95;;
14268;SDS011;7218;51.480;7.006;2023-05-10T11:40:38;16.80;;;12.70;;
14268;SDS011;7218;51.480;7.006;2023-05-10T11:43:05;17.52;;;12.82;;
14268;SDS011;7218;51.480;7.006;2023-05-10T11:45:32;17.20;;;12.63;;
14268;SDS011;7218;51.480;7.006;2023-05-10T11:47:58;18.38;;;12.75;;
14268;SDS011;7218;51.480;7.006;2023-05-10T11:50:25;18.30;;;12.45;;
14268;SDS011;7218;51.480;7.006;2023-05-10T11:52:52;17.50;;;12.38;;
14268;SDS011;7218;51.480;7.006;2023-05-10T11:55:21;18.15;;;12.57;;
14268;SDS011;7218;51.480;7.006;2023-05-10T11:57:51;17.10;;;12.30;;
14268;SDS011;7218;51.480;7.006;2023-05-10T12:00:18;16.90;;;12.73;;
14268;SDS011;7218;51.480;7.006;2023-05-10T12:02:45;19.17;;;12.50;;
14268;SDS011;7218;51.480;7.006;2023-05-10T12:05:11;17.45;;;13.15;;
14268;SDS011;7218;51.480;7.006;2023-05-10T12:07:38;17.08;;;12.40;;
14268;SDS011;7218;51.480;7.006;2023-05-10T12:10:05;17.33;;;12.23;;
14268;SDS011;7218;51.480;7.006;2023-05-10T12:12:40;14.98;;;11.55;;
14268;SDS011;7218;51.480;7.006;2023-05-10T12:15:11;16.05;;;11.25;;
14268;SDS011;7218;51.480;7.006;2023-05-10T12:17:43;15.35;;;11.25;;
14268;SDS011;7218;51.480;7.006;2023-05-10T12:20:13;12.48;;;9.80;;
14268;SDS011;7218;51.480;7.006;2023-05-10T12:22:40;15.77;;;10.35;;
14268;SDS011;7218;51.480;7.006;2023-05-10T12:25:08;11.90;;;9.10;;
14268;SDS011;7218;51.480;7.006;2023-05-10T12:27:35;11.38;;;9.55;;
14268;SDS011;7218;51.480;7.006;2023-05-10T12:30:04;10.77;;;9.63;;
14268;SDS011;7218;51.480;7.006;2023-05-10T12:32:38;11.18;;;8.63;;
14268;SDS011;7218;51.480;7.006;2023-05-10T12:35:05;11.88;;;9.15;;
14268;SDS011;7218;51.480;7.006;2023-05-10T12:37:32;8.80;;;7.78;;
14268;SDS011;7218;51.480;7.006;2023-05-10T12:40:00;8.27;;;5.93;;
14268;SDS011;7218;51.480;7.006;2023-05-10T12:42:27;7.80;;;5.60;;
14268;SDS011;7218;51.480;7.006;2023-05-10T12:44:55;8.18;;;6.00;;
14268;SDS011;7218;51.480;7.006;2023-05-10T12:47:23;7.07;;;5.78;;
14268;SDS011;7218;51.480;7.006;2023-05-10T12:49:49;6.30;;;5.43;;
14268;SDS011;7218;51.480;7.006;2023-05-10T12:52:16;7.43;;;5.75;;
14268;SDS011;7218;51.480;7.006;2023-05-10T12:54:43;6.32;;;5.50;;
14268;SDS011;7218;51.480;7.006;2023-05-10T12:57:09;7.75;;;5.68;;
14268;SDS011;7218;51.480;7.006;2023-05-10T12:59:35;6.85;;;5.95;;
14268;SDS011;7218;51.480;7.006;2023-05-10T13:02:02;11.20;;;6.68;;
14268;SDS011;7218;51.480;7.006;2023-05-10T13:04:30;8.07;;;6.10;;
14268;SDS011;7218;51.480;7.006;2023-05-10T13:06:56;9.57;;;5.72;;
14268;SDS011;7218;51.480;7.006;2023-05-10T13:09:23;5.93;;;5.03;;
14268;SDS011;7218;51.480;7.006;2023-05-10T13:11:50;9.00;;;5.60;;
14268;SDS011;7218;51.480;7.006;2023-05-10T13:14:18;7.90;;;4.43;;
14268;SDS011;7218;51.480;7.006;2023-05-10T13:16:45;5.78;;;4.53;;
14268;SDS011;7218;51.480;7.006;2023-05-10T13:19:12;6.78;;;4.70;;
14268;SDS011;7218;51.480;7.006;2023-05-10T13:21:40;6.18;;;4.45;;
14268;SDS011;7218;51.480;7.006;2023-05-10T13:24:07;5.38;;;4.40;;
14268;SDS011;7218;51.480;7.006;2023-05-10T13:26:33;5.78;;;4.45;;
14268;SDS011;7218;51.480;7.006;2023-05-10T13:29:01;4.40;;;3.85;;
14268;SDS011;7218;51.480;7.006;2023-05-10T13:31:27;8.35;;;6.03;;
14268;SDS011;7218;51.480;7.006;2023-05-10T13:33:54;5.82;;;4.90;;
14268;SDS011;7218;51.480;7.006;2023-05-10T13:36:21;7.70;;;5.07;;
14268;SDS011;7218;51.480;7.006;2023-05-10T13:38:49;5.20;;;4.32;;
14268;SDS011;7218;51.480;7.006;2023-05-10T13:41:15;5.80;;;4.20;;
14268;SDS011;7218;51.480;7.006;2023-05-10T13:43:42;6.53;;;3.90;;
14268;SDS011;7218;51.480;7.006;2023-05-10T13:46:09;4.40;;;4.00;;
14268;SDS011;7218;51.480;7.006;2023-05-10T13:48:35;6.60;;;4.43;;
14268;SDS011;7218;51.480;7.006;2023-05-10T13:51:02;5.90;;;3.97;;
14268;SDS011;7218;51.480;7.006;2023-05-10T13:53:29;4.15;;;3.53;;
14268;SDS011;7218;51.480;7.006;2023-05-10T13:55:57;8.35;;;5.15;;
14268;SDS011;7218;51.480;7.006;2023-05-10T13:58:23;5.05;;;3.78;;
14268;SDS011;7218;51.480;7.006;2023-05-10T14:00:50;3.80;;;3.28;;
14268;SDS011;7218;51.480;7.006;2023-05-10T14:03:16;3.67;;;3.13;;
14268;SDS011;7218;51.480;7.006;2023-05-10T14:05:42;5.20;;;3.83;;
14268;SDS011;7218;51.480;7.006;2023-05-10T14:08:10;6.82;;;4.20;;
14268;SDS011;7218;51.480;7.006;2023-05-10T14:10:38;5.25;;;4.00;;
14268;SDS011;7218;51.480;7.006;2023-05-10T14:13:05;6.43;;;3.55;;
14268;SDS011;7218;51.480;7.006;2023-05-10T14:15:32;6.00;;;3.42;;
14268;SDS011;7218;51.480;7.006;2023-05-10T14:17:59;5.93;;;3.30;;
14268;SDS011;7218;51.480;7.006;2023-05-10T14:20:25;5.65;;;3.90;;
14268;SDS011;7218;51.480;7.006;2023-05-10T14:22:52;5.18;;;3.83;;
14268;SDS011;7218;51.480;7.006;2023-05-10T14:25:18;6.40;;;4.90;;
14268;SDS011;7218;51.480;7.006;2023-05-10T14:27:45;5.10;;;3.88;;
14268;SDS011;7218;51.480;7.006;2023-05-10T14:30:13;9.90;;;4.40;;
14268;SDS011;7218;51.480;7.006;2023-05-10T14:32:40;8.02;;;3.92;;
14268;SDS011;7218;51.480;7.006;2023-05-10T14:35:06;7.35;;;3.97;;
14268;SDS011;7218;51.480;7.006;2023-05-10T14:37:33;4.65;;;4.25;;
14268;SDS011;7218;51.480;7.006;2023-05-10T14:40:00;10.00;;;4.90;;
14268;SDS011;7218;51.480;7.006;2023-05-10T14:42:27;8.77;;;6.40;;
14268;SDS011;7218;51.480;7.006;2023-05-10T14:44:53;10.63;;;7.82;;
14268;SDS011;7218;51.480;7.006;2023-05-10T14:47:21;10.88;;;6.78;;